sensor_id;sensor_type;location;lat;lon;timestamp;P1;durP1;ratioP1;P2;durP2;ratioP2
7171;SDS011;3627;46.544;14.944;2022-09-09T00:01:35;3.05;;;1.95;;
7171;SDS011;3627;46.544;14.944;2022-09-09T00:04:09;2.65;;;2.20;;
7171;SDS011;3627;46.544;14.944;2022-09-09T00:06:43;3.92;;;2.08;;
7171;SDS011;3627;46.544;14.944;2022-09-09T00:09:10;4.70;;;2.30;;
7171;SDS011;3627;46.544;14.944;2022-09-09T00:11:39;2.95;;;1.92;;
7171;SDS011;3627;46.544;14.944;2022-09-09T00:14:08;3.15;;;2.28;;
7171;SDS011;3627;46.544;14.944;2022-09-09T00:16:38;5.03;;;1.98;;
7171;SDS011;3627;46.544;14.944;2022-09-09T00:19:12;4.07;;;1.90;;
7171;SDS011;3627;46.544;14.944;2022-09-09T00:21:43;4.65;;;2.67;;
7171;SDS011;3627;46.544;14.944;2022-09-09T00:24:15;4.13;;;2.00;;
7171;SDS011;3627;46.544;14.944;2022-09-09T00:26:44;2.08;;;1.95;;
7171;SDS011;3627;46.544;14.944;2022-09-09T00:29:14;3.10;;;2.50;;
7171;SDS011;3627;46.544;14.944;2022-09-09T00:31:45;6.03;;;2.17;;
7171;SDS011;3627;46.544;14.944;2022-09-09T00:34:14;6.35;;;3.25;;
7171;SDS011;3627;46.544;14.944;2022-09-09T00:36:42;6.18;;;2.97;;
7171;SDS011;3627;46.544;14.944;2022-09-09T00:39:10;6.40;;;2.90;;
7171;SDS011;3627;46.544;14.944;2022-09-09T00:41:42;3.13;;;2.63;;
7171;SDS011;3627;46.544;14.944;2022-09-09T00:44:17;3.33;;;2.58;;
7171;SDS011;3627;46.544;14.944;2022-09-09T00:47:01;2.47;;;2.28;;
7171;SDS011;3627;46.544;14.944;2022-09-09T00:49:35;2.55;;;2.22;;
7171;SDS011;3627;46.544;14.944;2022-09-09T00:52:08;6.97;;;2.22;;
7171;SDS011;3627;46.544;14.944;2022-09-09T00:54:45;3.67;;;2.28;;
7171;SDS011;3627;46.544;14.944;2022-09-09T00:57:17;4.80;;;2.67;;
7171;SDS011;3627;46.544;14.944;2022-09-09T00:59:46;4.35;;;2.83;;
7171;SDS011;3627;46.544;14.944;2022-09-09T01:02:15;2.85;;;2.45;;
7171;SDS011;3627;46.544;14.944;2022-09-09T01:04:48;3.10;;;2.75;;
7171;SDS011;3627;46.544;14.944;2022-09-09T01:07:15;3.53;;;2.97;;
7171;SDS011;3627;46.544;14.944;2022-09-09T01:09:45;3.25;;;3.00;;
7171;SDS011;3627;46.544;14.944;2022-09-09T01:12:17;3.58;;;2.78;;
7171;SDS011;3627;46.544;14.944;2022-09-09T01:14:45;3.15;;;2.50;;
7171;SDS011;3627;46.544;14.944;2022-09-09T01:17:14;3.70;;;2.80;;
7171;SDS011;3627;46.544;14.944;2022-09-09T01:19:45;7.57;;;2.70;;
7171;SDS011;3627;46.544;14.944;2022-09-09T01:22:20;3.35;;;2.65;;
7171;SDS011;3627;46.544;14.944;2022-09-09T01:25:01;5.60;;;2.67;;
7171;SDS011;3627;46.544;14.944;2022-09-09T01:27:34;4.65;;;2.70;;
7171;SDS011;3627;46.544;14.944;2022-09-09T01:30:01;2.95;;;2.58;;
7171;SDS011;3627;46.544;14.944;2022-09-09T01:32:38;3.38;;;2.72;;
7171;SDS011;3627;46.544;14.944;2022-09-09T01:35:05;4.95;;;3.22;;
7171;SDS011;3627;46.544;14.944;2022-09-09T01:37:33;3.42;;;2.83;;
7171;SDS011;3627;46.544;14.944;2022-09-09T01:40:00;4.85;;;2.40;;
7171;SDS011;3627;46.544;14.944;2022-09-09T01:42:26;4.95;;;2.30;;
7171;SDS011;3627;46.544;14.944;2022-09-09T01:44:54;5.72;;;2.63;;
7171;SDS011;3627;46.544;14.944;2022-09-09T01:47:20;2.80;;;2.60;;
7171;SDS011;3627;46.544;14.944;2022-09-09T01:49:47;3.60;;;2.90;;
7171;SDS011;3627;46.544;14.944;2022-09-09T01:52:13;4.05;;;2.65;;
7171;SDS011;3627;46.544;14.944;2022-09-09T01:54:40;4.63;;;2.30;;
7171;SDS011;3627;46.544;14.944;2022-09-09T01:57:08;2.70;;;2.50;;
7171;SDS011;3627;46.544;14.944;2022-09-09T01:59:45;6.93;;;2.60;;
7171;SDS011;3627;46.544;14.944;2022-09-09T02:02:17;3.88;;;2.65;;
7171;SDS011;3627;46.544;14.944;2022-09-09T02:04:44;4.03;;;2.85;;
7171;SDS011;3627;46.544;14.944;2022-09-09T02:07:18;5.53;;;3.10;;
7171;SDS011;3627;46.544;14.944;2022-09-09T02:09:49;4.75;;;2.97;;
7171;SDS011;3627;46.544;14.944;2022-09-09T02:12:18;3.08;;;2.78;;
7171;SDS011;3627;46.544;14.944;2022-09-09T02:14:47;2.88;;;2.63;;
7171;SDS011;3627;46.544;14.944;2022-09-09T02:17:15;3.65;;;3.00;;
7171;SDS011;3627;46.544;14.944;2022-09-09T02:19:45;2.70;;;2.50;;
7171;SDS011;3627;46.544;14.944;2022-09-09T02:22:14;4.07;;;2.33;;
7171;SDS011;3627;46.544;14.944;2022-09-09T02:24:42;2.88;;;2.63;;
7171;SDS011;3627;46.544;14.944;2022-09-09T02:27:08;3.25;;;2.75;;
7171;SDS011;3627;46.544;14.944;2022-09-09T02:29:36;3.92;;;2.63;;
7171;SDS011;3627;46.544;14.944;2022-09-09T02:32:05;6.93;;;3.17;;
7171;SDS011;3627;46.544;14.944;2022-09-09T02:34:33;8.23;;;3.30;;
7171;SDS011;3627;46.544;14.944;2022-09-09T02:37:02;5.53;;;3.13;;
7171;SDS011;3627;46.544;14.944;2022-09-09T02:39:29;4.63;;;3.20;;
7171;SDS011;3627;46.544;14.944;2022-09-09T02:41:56;4.03;;;3.10;;
7171;SDS011;3627;46.544;14.944;2022-09-09T02:44:22;5.10;;;2.60;;
7171;SDS011;3627;46.544;14.944;2022-09-09T02:46:53;4.57;;;3.03;;
7171;SDS011;3627;46.544;14.944;2022-09-09T02:49:27;4.20;;;2.92;;
7171;SDS011;3627;46.544;14.944;2022-09-09T02:51:57;3.25;;;2.72;;
7171;SDS011;3627;46.544;14.944;2022-09-09T02:54:29;6.15;;;2.80;;
7171;SDS011;3627;46.544;14.944;2022-09-09T02:56:58;4.55;;;2.90;;
7171;SDS011;3627;46.544;14.944;2022-09-09T02:59:27;3.85;;;3.08;;
7171;SDS011;3627;46.544;14.944;2022-09-09T03:01:54;3.47;;;2.60;;
7171;SDS011;3627;46.544;14.944;2022-09-09T03:04:20;6.15;;;2.97;;
7171;SDS011;3627;46.544;14.944;2022-09-09T03:06:47;3.20;;;2.75;;
7171;SDS011;3627;46.544;14.944;2022-09-09T03:09:14;6.22;;;3.20;;
7171;SDS011;3627;46.544;14.944;2022-09-09T03:11:42;4.95;;;3.22;;
7171;SDS011;3627;46.544;14.944;2022-09-09T03:14:08;5.03;;;3.90;;
7171;SDS011;3627;46.544;14.944;2022-09-09T03:16:36;4.82;;;2.78;;
7171;SDS011;3627;46.544;14.944;2022-09-09T03:19:02;4.95;;;3.42;;
7171;SDS011;3627;46.544;14.944;2022-09-09T03:21:29;4.85;;;3.00;;
7171;SDS011;3627;46.544;14.944;2022-09-09T03:23:55;6.57;;;3.97;;
7171;SDS011;3627;46.544;14.944;2022-09-09T03:26:22;7.78;;;4.00;;
7171;SDS011;3627;46.544;14.944;2022-09-09T03:28:50;6.53;;;5.38;;
7171;SDS011;3627;46.544;14.944;2022-09-09T03:31:17;8.80;;;5.20;;
7171;SDS011;3627;46.544;14.944;2022-09-09T03:33:44;7.25;;;3.65;;
7171;SDS011;3627;46.544;14.944;2022-09-09T03:36:10;4.25;;;3.67;;
7171;SDS011;3627;46.544;14.944;2022-09-09T03:38:37;5.85;;;3.53;;
7171;SDS011;3627;46.544;14.944;2022-09-09T03:41:03;6.05;;;4.25;;
7171;SDS011;3627;46.544;14.944;2022-09-09T03:43:32;4.63;;;3.47;;
7171;SDS011;3627;46.544;14.944;2022-09-09T03:46:00;3.25;;;2.95;;
7171;SDS011;3627;46.544;14.944;2022-09-09T03:48:27;6.78;;;3.45;;
7171;SDS011;3627;46.544;14.944;2022-09-09T03:50:54;5.15;;;3.00;;
7171;SDS011;3627;46.544;14.944;2022-09-09T03:53:23;6.50;;;3.38;;
7171;SDS011;3627;46.544;14.944;2022-09-09T03:55:51;4.43;;;3.30;;
7171;SDS011;3627;46.544;14.944;2022-09-09T03:58:19;11.40;;;3.45;;
7171;SDS011;3627;46.544;14.944;2022-09-09T04:00:52;7.32;;;3.50;;
7171;SDS011;3627;46.544;14.944;2022-09-09T04:03:20;5.00;;;3.30;;
7171;SDS011;3627;46.544;14.944;2022-09-09T04:05:48;5.28;;;2.88;;
7171;SDS011;3627;46.544;14.944;2022-09-09T04:08:14;4.43;;;3.20;;
7171;SDS011;3627;46.544;14.944;2022-09-09T04:10:41;3.67;;;3.10;;
7171;SDS011;3627;46.544;14.944;2022-09-09T04:13:07;5.78;;;3.05;;
7171;SDS011;3627;46.544;14.944;2022-09-09T04:15:33;5.30;;;2.95;;
7171;SDS011;3627;46.544;14.944;2022-09-09T04:18:00;5.18;;;3.00;;
7171;SDS011;3627;46.544;14.944;2022-09-09T04:20:28;3.15;;;2.85;;
7171;SDS011;3627;46.544;14.944;2022-09-09T04:22:55;4.82;;;3.05;;
7171;SDS011;3627;46.544;14.944;2022-09-09T04:25:21;3.40;;;2.90;;
7171;SDS011;3627;46.544;14.944;2022-09-09T04:27:47;3.35;;;2.95;;
7171;SDS011;3627;46.544;14.944;2022-09-09T04:30:19;7.78;;;2.85;;
7171;SDS011;3627;46.544;14.944;2022-09-09T04:32:46;6.80;;;3.63;;
7171;SDS011;3627;46.544;14.944;2022-09-09T04:35:12;4.15;;;3.30;;
7171;SDS011;3627;46.544;14.944;2022-09-09T04:37:40;4.00;;;3.03;;
7171;SDS011;3627;46.544;14.944;2022-09-09T04:40:07;3.40;;;2.85;;
7171;SDS011;3627;46.544;14.944;2022-09-09T04:42:34;6.45;;;3.35;;
7171;SDS011;3627;46.544;14.944;2022-09-09T04:45:01;3.67;;;2.58;;
7171;SDS011;3627;46.544;14.944;2022-09-09T04:47:28;3.08;;;2.63;;
7171;SDS011;3627;46.544;14.944;2022-09-09T04:49:54;6.07;;;3.03;;
7171;SDS011;3627;46.544;14.944;2022-09-09T04:52:21;3.72;;;2.90;;
7171;SDS011;3627;46.544;14.944;2022-09-09T04:54:49;5.07;;;3.08;;
7171;SDS011;3627;46.544;14.944;2022-09-09T04:57:15;3.17;;;2.50;;
7171;SDS011;3627;46.544;14.944;2022-09-09T04:59:42;5.20;;;2.20;;
7171;SDS011;3627;46.544;14.944;2022-09-09T05:02:09;6.47;;;2.60;;
7171;SDS011;3627;46.544;14.944;2022-09-09T05:04:36;2.88;;;2.22;;
7171;SDS011;3627;46.544;14.944;2022-09-09T05:07:02;2.78;;;2.33;;
7171;SDS011;3627;46.544;14.944;2022-09-09T05:09:28;2.50;;;2.30;;
7171;SDS011;3627;46.544;14.944;2022-09-09T05:11:56;3.03;;;2.50;;
7171;SDS011;3627;46.544;14.944;2022-09-09T05:14:23;4.53;;;2.80;;
7171;SDS011;3627;46.544;14.944;2022-09-09T05:16:49;8.57;;;2.83;;
7171;SDS011;3627;46.544;14.944;2022-09-09T05:19:16;5.53;;;3.67;;
7171;SDS011;3627;46.544;14.944;2022-09-09T05:21:44;5.25;;;4.00;;
7171;SDS011;3627;46.544;14.944;2022-09-09T05:24:10;6.43;;;4.45;;
7171;SDS011;3627;46.544;14.944;2022-09-09T05:26:37;5.45;;;3.92;;
7171;SDS011;3627;46.544;14.944;2022-09-09T05:29:04;11.77;;;4.43;;
7171;SDS011;3627;46.544;14.944;2022-09-09T05:31:31;15.68;;;4.20;;
7171;SDS011;3627;46.544;14.944;2022-09-09T05:33:58;3.97;;;3.15;;
7171;SDS011;3627;46.544;14.944;2022-09-09T05:36:25;9.10;;;3.72;;
7171;SDS011;3627;46.544;14.944;2022-09-09T05:38:51;5.53;;;3.70;;
7171;SDS011;3627;46.544;14.944;2022-09-09T05:41:18;5.18;;;3.20;;
7171;SDS011;3627;46.544;14.944;2022-09-09T05:43:45;6.85;;;3.17;;
7171;SDS011;3627;46.544;14.944;2022-09-09T05:46:14;4.28;;;3.70;;
7171;SDS011;3627;46.544;14.944;2022-09-09T05:48:41;4.20;;;3.10;;
7171;SDS011;3627;46.544;14.944;2022-09-09T05:51:08;3.85;;;3.15;;
7171;SDS011;3627;46.544;14.944;2022-09-09T05:53:35;6.80;;;3.53;;
7171;SDS011;3627;46.544;14.944;2022-09-09T05:56:03;4.90;;;3.55;;
7171;SDS011;3627;46.544;14.944;2022-09-09T05:58:30;6.65;;;4.40;;
7171;SDS011;3627;46.544;14.944;2022-09-09T06:01:00;6.90;;;4.07;;
7171;SDS011;3627;46.544;14.944;2022-09-09T06:03:28;9.20;;;4.88;;
7171;SDS011;3627;46.544;14.944;2022-09-09T06:05:58;5.93;;;4.43;;
7171;SDS011;3627;46.544;14.944;2022-09-09T06:08:24;7.60;;;4.13;;
7171;SDS011;3627;46.544;14.944;2022-09-09T06:10:51;6.88;;;4.00;;
7171;SDS011;3627;46.544;14.944;2022-09-09T06:13:17;8.60;;;4.20;;
7171;SDS011;3627;46.544;14.944;2022-09-09T06:15:48;6.93;;;4.75;;
7171;SDS011;3627;46.544;14.944;2022-09-09T06:18:15;6.97;;;4.93;;
7171;SDS011;3627;46.544;14.944;2022-09-09T06:20:52;6.53;;;5.00;;
7171;SDS011;3627;46.544;14.944;2022-09-09T06:23:19;7.65;;;5.05;;
7171;SDS011;3627;46.544;14.944;2022-09-09T06:25:45;5.40;;;4.90;;
7171;SDS011;3627;46.544;14.944;2022-09-09T06:28:12;9.38;;;4.82;;
7171;SDS011;3627;46.544;14.944;2022-09-09T06:30:38;8.43;;;4.90;;
7171;SDS011;3627;46.544;14.944;2022-09-09T06:33:05;8.85;;;4.95;;
7171;SDS011;3627;46.544;14.944;2022-09-09T06:35:31;10.35;;;5.63;;
7171;SDS011;3627;46.544;14.944;2022-09-09T06:37:59;10.00;;;5.60;;
7171;SDS011;3627;46.544;14.944;2022-09-09T06:40:25;7.50;;;5.07;;
7171;SDS011;3627;46.544;14.944;2022-09-09T06:42:52;11.07;;;5.90;;
7171;SDS011;3627;46.544;14.944;2022-09-09T06:45:18;10.95;;;6.25;;
7171;SDS011;3627;46.544;14.944;2022-09-09T06:47:44;9.95;;;6.32;;
7171;SDS011;3627;46.544;14.944;2022-09-09T06:50:11;13.70;;;6.43;;
7171;SDS011;3627;46.544;14.944;2022-09-09T06:52:38;11.02;;;5.85;;
7171;SDS011;3627;46.544;14.944;2022-09-09T06:55:06;9.73;;;5.65;;
7171;SDS011;3627;46.544;14.944;2022-09-09T06:57:33;9.57;;;6.45;;
7171;SDS011;3627;46.544;14.944;2022-09-09T06:59:59;11.82;;;5.55;;
7171;SDS011;3627;46.544;14.944;2022-09-09T07:02:26;10.32;;;6.10;;
7171;SDS011;3627;46.544;14.944;2022-09-09T07:04:52;10.65;;;6.10;;
7171;SDS011;3627;46.544;14.944;2022-09-09T07:07:19;8.45;;;6.80;;
7171;SDS011;3627;46.544;14.944;2022-09-09T07:09:45;10.68;;;6.88;;
7171;SDS011;3627;46.544;14.944;2022-09-09T07:12:13;10.05;;;7.03;;
7171;SDS011;3627;46.544;14.944;2022-09-09T07:14:40;9.50;;;6.10;;
7171;SDS011;3627;46.544;14.944;2022-09-09T07:17:06;13.57;;;7.05;;
7171;SDS011;3627;46.544;14.944;2022-09-09T07:19:32;9.65;;;5.85;;
7171;SDS011;3627;46.544;14.944;2022-09-09T07:21:59;8.20;;;5.35;;
7171;SDS011;3627;46.544;14.944;2022-09-09T07:24:27;6.80;;;4.90;;
7171;SDS011;3627;46.544;14.944;2022-09-09T07:26:55;9.05;;;5.22;;
7171;SDS011;3627;46.544;14.944;2022-09-09T07:29:22;5.93;;;4.57;;
7171;SDS011;3627;46.544;14.944;2022-09-09T07:31:49;9.05;;;4.80;;
7171;SDS011;3627;46.544;14.944;2022-09-09T07:34:15;5.65;;;4.50;;
7171;SDS011;3627;46.544;14.944;2022-09-09T07:36:42;8.18;;;5.35;;
7171;SDS011;3627;46.544;14.944;2022-09-09T07:39:10;9.63;;;5.35;;
7171;SDS011;3627;46.544;14.944;2022-09-09T07:41:38;9.23;;;5.07;;
7171;SDS011;3627;46.544;14.944;2022-09-09T07:44:05;6.63;;;5.22;;
7171;SDS011;3627;46.544;14.944;2022-09-09T07:46:34;14.85;;;6.03;;
7171;SDS011;3627;46.544;14.944;2022-09-09T07:49:02;10.68;;;5.22;;
7171;SDS011;3627;46.544;14.944;2022-09-09T07:51:29;7.63;;;4.60;;
7171;SDS011;3627;46.544;14.944;2022-09-09T07:53:57;9.50;;;4.68;;
7171;SDS011;3627;46.544;14.944;2022-09-09T07:56:24;7.45;;;4.47;;
7171;SDS011;3627;46.544;14.944;2022-09-09T07:58:51;6.65;;;5.38;;
7171;SDS011;3627;46.544;14.944;2022-09-09T08:01:18;7.47;;;4.70;;
7171;SDS011;3627;46.544;14.944;2022-09-09T08:03:47;6.95;;;4.85;;
7171;SDS011;3627;46.544;14.944;2022-09-09T08:06:18;11.75;;;5.78;;
7171;SDS011;3627;46.544;14.944;2022-09-09T08:08:44;11.25;;;5.70;;
7171;SDS011;3627;46.544;14.944;2022-09-09T08:11:13;10.95;;;6.30;;
7171;SDS011;3627;46.544;14.944;2022-09-09T08:13:40;15.48;;;6.20;;
7171;SDS011;3627;46.544;14.944;2022-09-09T08:16:07;9.35;;;5.68;;
7171;SDS011;3627;46.544;14.944;2022-09-09T08:18:34;13.88;;;6.93;;
7171;SDS011;3627;46.544;14.944;2022-09-09T08:21:09;11.00;;;5.65;;
7171;SDS011;3627;46.544;14.944;2022-09-09T08:23:37;13.25;;;6.03;;
7171;SDS011;3627;46.544;14.944;2022-09-09T08:26:05;10.15;;;5.20;;
7171;SDS011;3627;46.544;14.944;2022-09-09T08:28:31;8.82;;;5.70;;
7171;SDS011;3627;46.544;14.944;2022-09-09T08:31:04;7.57;;;4.47;;
7171;SDS011;3627;46.544;14.944;2022-09-09T08:33:30;8.52;;;5.45;;
7171;SDS011;3627;46.544;14.944;2022-09-09T08:35:57;8.70;;;5.22;;
7171;SDS011;3627;46.544;14.944;2022-09-09T08:38:25;9.00;;;5.28;;
7171;SDS011;3627;46.544;14.944;2022-09-09T08:40:52;9.02;;;5.15;;
7171;SDS011;3627;46.544;14.944;2022-09-09T08:43:21;7.70;;;4.85;;
7171;SDS011;3627;46.544;14.944;2022-09-09T08:45:50;7.57;;;4.97;;
7171;SDS011;3627;46.544;14.944;2022-09-09T08:48:24;13.88;;;5.43;;
7171;SDS011;3627;46.544;14.944;2022-09-09T08:50:56;10.18;;;4.78;;
7171;SDS011;3627;46.544;14.944;2022-09-09T08:53:28;7.10;;;3.92;;
7171;SDS011;3627;46.544;14.944;2022-09-09T08:55:56;7.45;;;2.80;;
7171;SDS011;3627;46.544;14.944;2022-09-09T08:58:25;5.70;;;2.90;;
7171;SDS011;3627;46.544;14.944;2022-09-09T09:00:57;3.28;;;2.22;;
7171;SDS011;3627;46.544;14.944;2022-09-09T09:03:28;4.50;;;2.10;;
7171;SDS011;3627;46.544;14.944;2022-09-09T09:05:59;3.83;;;2.55;;
7171;SDS011;3627;46.544;14.944;2022-09-09T09:08:30;4.22;;;2.70;;
7171;SDS011;3627;46.544;14.944;2022-09-09T09:11:03;3.05;;;2.15;;
7171;SDS011;3627;46.544;14.944;2022-09-09T09:13:33;5.78;;;3.08;;
7171;SDS011;3627;46.544;14.944;2022-09-09T09:16:02;2.35;;;2.15;;
7171;SDS011;3627;46.544;14.944;2022-09-09T09:18:30;4.15;;;2.20;;
7171;SDS011;3627;46.544;14.944;2022-09-09T09:20:58;2.35;;;2.15;;
7171;SDS011;3627;46.544;14.944;2022-09-09T09:23:29;3.97;;;2.25;;
7171;SDS011;3627;46.544;14.944;2022-09-09T09:26:01;2.28;;;2.08;;
7171;SDS011;3627;46.544;14.944;2022-09-09T09:28:32;2.45;;;2.08;;
7171;SDS011;3627;46.544;14.944;2022-09-09T09:30:59;3.45;;;2.42;;
7171;SDS011;3627;46.544;14.944;2022-09-09T09:33:29;5.65;;;2.00;;
7171;SDS011;3627;46.544;14.944;2022-09-09T09:35:57;2.60;;;2.40;;
7171;SDS011;3627;46.544;14.944;2022-09-09T09:38:25;3.50;;;2.53;;
7171;SDS011;3627;46.544;14.944;2022-09-09T09:40:53;3.60;;;2.88;;
7171;SDS011;3627;46.544;14.944;2022-09-09T09:43:25;5.85;;;3.80;;
7171;SDS011;3627;46.544;14.944;2022-09-09T09:45:52;5.13;;;3.88;;
7171;SDS011;3627;46.544;14.944;2022-09-09T09:48:19;6.97;;;3.75;;
7171;SDS011;3627;46.544;14.944;2022-09-09T09:50:49;7.72;;;4.13;;
7171;SDS011;3627;46.544;14.944;2022-09-09T09:53:16;8.25;;;4.10;;
7171;SDS011;3627;46.544;14.944;2022-09-09T09:55:46;6.47;;;3.50;;
7171;SDS011;3627;46.544;14.944;2022-09-09T09:58:14;6.22;;;3.70;;
7171;SDS011;3627;46.544;14.944;2022-09-09T10:00:48;5.22;;;3.08;;
7171;SDS011;3627;46.544;14.944;2022-09-09T10:03:25;4.10;;;2.60;;
7171;SDS011;3627;46.544;14.944;2022-09-09T10:05:52;5.60;;;3.20;;
7171;SDS011;3627;46.544;14.944;2022-09-09T10:08:20;4.47;;;3.10;;
7171;SDS011;3627;46.544;14.944;2022-09-09T10:10:52;4.07;;;2.90;;
7171;SDS011;3627;46.544;14.944;2022-09-09T10:13:24;7.55;;;2.80;;
7171;SDS011;3627;46.544;14.944;2022-09-09T10:16:00;5.28;;;2.55;;
7171;SDS011;3627;46.544;14.944;2022-09-09T10:18:35;4.32;;;2.30;;
7171;SDS011;3627;46.544;14.944;2022-09-09T10:21:03;3.13;;;2.67;;
7171;SDS011;3627;46.544;14.944;2022-09-09T10:23:38;4.55;;;2.88;;
7171;SDS011;3627;46.544;14.944;2022-09-09T10:26:15;5.95;;;2.30;;
7171;SDS011;3627;46.544;14.944;2022-09-09T10:28:54;6.43;;;2.30;;
7171;SDS011;3627;46.544;14.944;2022-09-09T10:31:27;4.40;;;2.70;;
7171;SDS011;3627;46.544;14.944;2022-09-09T10:33:57;2.47;;;2.13;;
7171;SDS011;3627;46.544;14.944;2022-09-09T10:36:26;2.83;;;2.28;;
7171;SDS011;3627;46.544;14.944;2022-09-09T10:38:53;2.78;;;2.10;;
7171;SDS011;3627;46.544;14.944;2022-09-09T10:41:26;2.33;;;2.10;;
7171;SDS011;3627;46.544;14.944;2022-09-09T10:46:56;3.33;;;2.30;;
7171;SDS011;3627;46.544;14.944;2022-09-09T10:49:30;2.05;;;1.90;;
7171;SDS011;3627;46.544;14.944;2022-09-09T10:52:04;3.13;;;2.10;;
7171;SDS011;3627;46.544;14.944;2022-09-09T10:54:40;2.90;;;2.30;;
7171;SDS011;3627;46.544;14.944;2022-09-09T10:57:08;2.40;;;1.83;;
7171;SDS011;3627;46.544;14.944;2022-09-09T10:59:38;2.47;;;2.13;;
7171;SDS011;3627;46.544;14.944;2022-09-09T11:02:11;4.95;;;2.50;;
7171;SDS011;3627;46.544;14.944;2022-09-09T11:04:41;5.82;;;2.42;;
7171;SDS011;3627;46.544;14.944;2022-09-09T11:07:10;4.53;;;2.22;;
7171;SDS011;3627;46.544;14.944;2022-09-09T11:09:40;4.85;;;1.95;;
7171;SDS011;3627;46.544;14.944;2022-09-09T11:12:07;2.63;;;2.40;;
7171;SDS011;3627;46.544;14.944;2022-09-09T11:14:39;4.10;;;2.10;;
7171;SDS011;3627;46.544;14.944;2022-09-09T11:17:10;3.47;;;2.10;;
7171;SDS011;3627;46.544;14.944;2022-09-09T11:19:38;3.38;;;2.28;;
7171;SDS011;3627;46.544;14.944;2022-09-09T11:22:06;2.80;;;2.20;;
7171;SDS011;3627;46.544;14.944;2022-09-09T11:24:35;2.72;;;1.98;;
7171;SDS011;3627;46.544;14.944;2022-09-09T11:27:05;2.92;;;2.63;;
7171;SDS011;3627;46.544;14.944;2022-09-09T11:32:27;2.30;;;2.10;;
7171;SDS011;3627;46.544;14.944;2022-09-09T11:35:00;4.28;;;2.75;;
7171;SDS011;3627;46.544;14.944;2022-09-09T11:37:37;4.20;;;2.47;;
7171;SDS011;3627;46.544;14.944;2022-09-09T11:40:08;3.28;;;2.53;;
7171;SDS011;3627;46.544;14.944;2022-09-09T11:42:35;3.15;;;2.15;;
7171;SDS011;3627;46.544;14.944;2022-09-09T11:45:09;2.65;;;2.33;;
7171;SDS011;3627;46.544;14.944;2022-09-09T11:47:37;2.95;;;2.33;;
7171;SDS011;3627;46.544;14.944;2022-09-09T11:50:07;2.97;;;2.65;;
7171;SDS011;3627;46.544;14.944;2022-09-09T11:52:36;3.25;;;2.58;;
7171;SDS011;3627;46.544;14.944;2022-09-09T11:55:08;3.05;;;2.58;;
7171;SDS011;3627;46.544;14.944;2022-09-09T11:57:35;5.43;;;2.67;;
7171;SDS011;3627;46.544;14.944;2022-09-09T12:00:02;4.05;;;2.70;;
7171;SDS011;3627;46.544;14.944;2022-09-09T12:02:29;3.28;;;2.17;;
7171;SDS011;3627;46.544;14.944;2022-09-09T12:04:59;3.10;;;2.40;;
7171;SDS011;3627;46.544;14.944;2022-09-09T12:07:31;3.65;;;2.40;;
7171;SDS011;3627;46.544;14.944;2022-09-09T12:09:59;3.60;;;2.42;;
7171;SDS011;3627;46.544;14.944;2022-09-09T12:12:31;4.07;;;2.35;;
7171;SDS011;3627;46.544;14.944;2022-09-09T12:14:59;3.35;;;2.42;;
7171;SDS011;3627;46.544;14.944;2022-09-09T12:17:26;3.00;;;2.70;;
7171;SDS011;3627;46.544;14.944;2022-09-09T12:20:01;4.30;;;2.40;;
7171;SDS011;3627;46.544;14.944;2022-09-09T12:22:34;2.92;;;2.60;;
7171;SDS011;3627;46.544;14.944;2022-09-09T12:25:04;2.85;;;2.42;;
7171;SDS011;3627;46.544;14.944;2022-09-09T12:27:34;2.88;;;2.40;;
7171;SDS011;3627;46.544;14.944;2022-09-09T12:30:03;2.60;;;2.40;;
7171;SDS011;3627;46.544;14.944;2022-09-09T12:32:30;2.78;;;2.47;;
7171;SDS011;3627;46.544;14.944;2022-09-09T12:34:57;2.33;;;2.13;;
7171;SDS011;3627;46.544;14.944;2022-09-09T12:37:29;2.65;;;2.40;;
7171;SDS011;3627;46.544;14.944;2022-09-09T12:39:57;2.38;;;2.17;;
7171;SDS011;3627;46.544;14.944;2022-09-09T12:42:24;2.42;;;2.22;;
7171;SDS011;3627;46.544;14.944;2022-09-09T12:44:55;4.43;;;2.60;;
7171;SDS011;3627;46.544;14.944;2022-09-09T12:47:22;3.63;;;2.70;;
7171;SDS011;3627;46.544;14.944;2022-09-09T12:49:49;3.92;;;2.20;;
7171;SDS011;3627;46.544;14.944;2022-09-09T12:52:18;3.95;;;2.15;;
7171;SDS011;3627;46.544;14.944;2022-09-09T12:54:48;2.22;;;2.05;;
7171;SDS011;3627;46.544;14.944;2022-09-09T12:57:16;3.33;;;2.50;;
7171;SDS011;3627;46.544;14.944;2022-09-09T12:59:43;2.70;;;2.20;;
7171;SDS011;3627;46.544;14.944;2022-09-09T13:02:14;4.03;;;2.35;;
7171;SDS011;3627;46.544;14.944;2022-09-09T13:04:42;2.92;;;2.30;;
7171;SDS011;3627;46.544;14.944;2022-09-09T13:07:09;5.82;;;2.53;;
7171;SDS011;3627;46.544;14.944;2022-09-09T13:09:36;3.97;;;2.50;;
7171;SDS011;3627;46.544;14.944;2022-09-09T13:12:04;2.80;;;2.60;;
7171;SDS011;3627;46.544;14.944;2022-09-09T13:14:33;2.95;;;2.40;;
7171;SDS011;3627;46.544;14.944;2022-09-09T13:17:03;2.38;;;2.10;;
7171;SDS011;3627;46.544;14.944;2022-09-09T13:19:32;2.63;;;2.40;;
7171;SDS011;3627;46.544;14.944;2022-09-09T13:22:00;3.92;;;2.30;;
7171;SDS011;3627;46.544;14.944;2022-09-09T13:24:37;2.13;;;2.03;;
7171;SDS011;3627;46.544;14.944;2022-09-09T13:27:05;4.53;;;3.00;;
7171;SDS011;3627;46.544;14.944;2022-09-09T13:29:50;2.95;;;2.28;;
7171;SDS011;3627;46.544;14.944;2022-09-09T13:32:17;3.65;;;2.08;;
7171;SDS011;3627;46.544;14.944;2022-09-09T13:34:50;2.55;;;2.05;;
7171;SDS011;3627;46.544;14.944;2022-09-09T13:37:17;2.97;;;2.33;;
7171;SDS011;3627;46.544;14.944;2022-09-09T13:39:50;2.65;;;2.22;;
7171;SDS011;3627;46.544;14.944;2022-09-09T13:42:23;2.47;;;2.28;;
7171;SDS011;3627;46.544;14.944;2022-09-09T13:44:51;2.78;;;2.53;;
7171;SDS011;3627;46.544;14.944;2022-09-09T13:47:18;2.78;;;2.10;;
7171;SDS011;3627;46.544;14.944;2022-09-09T13:49:45;3.50;;;2.53;;
7171;SDS011;3627;46.544;14.944;2022-09-09T13:52:12;3.40;;;2.42;;
7171;SDS011;3627;46.544;14.944;2022-09-09T13:54:40;3.85;;;2.78;;
7171;SDS011;3627;46.544;14.944;2022-09-09T13:57:14;5.75;;;2.78;;
7171;SDS011;3627;46.544;14.944;2022-09-09T13:59:42;3.78;;;3.00;;
7171;SDS011;3627;46.544;14.944;2022-09-09T14:02:09;3.08;;;2.42;;
7171;SDS011;3627;46.544;14.944;2022-09-09T14:04:35;3.10;;;2.80;;
7171;SDS011;3627;46.544;14.944;2022-09-09T14:07:02;3.88;;;3.42;;
7171;SDS011;3627;46.544;14.944;2022-09-09T14:09:29;4.75;;;3.33;;
7171;SDS011;3627;46.544;14.944;2022-09-09T14:11:55;6.00;;;3.75;;
7171;SDS011;3627;46.544;14.944;2022-09-09T14:14:22;4.22;;;3.78;;
7171;SDS011;3627;46.544;14.944;2022-09-09T14:16:51;6.35;;;3.20;;
7171;SDS011;3627;46.544;14.944;2022-09-09T14:19:18;3.88;;;3.08;;
7171;SDS011;3627;46.544;14.944;2022-09-09T14:21:45;3.50;;;3.20;;
7171;SDS011;3627;46.544;14.944;2022-09-09T14:24:11;5.75;;;3.53;;
7171;SDS011;3627;46.544;14.944;2022-09-09T14:26:37;3.15;;;2.83;;
7171;SDS011;3627;46.544;14.944;2022-09-09T14:29:04;6.20;;;3.17;;
7171;SDS011;3627;46.544;14.944;2022-09-09T14:31:30;3.33;;;3.03;;
7171;SDS011;3627;46.544;14.944;2022-09-09T14:33:59;4.25;;;3.30;;
7171;SDS011;3627;46.544;14.944;2022-09-09T14:36:25;4.47;;;3.35;;
7171;SDS011;3627;46.544;14.944;2022-09-09T14:38:51;3.78;;;3.35;;
7171;SDS011;3627;46.544;14.944;2022-09-09T14:41:19;3.53;;;2.60;;
7171;SDS011;3627;46.544;14.944;2022-09-09T14:43:47;5.28;;;3.40;;
7171;SDS011;3627;46.544;14.944;2022-09-09T14:46:14;3.60;;;3.10;;
7171;SDS011;3627;46.544;14.944;2022-09-09T14:48:42;5.20;;;3.10;;
7171;SDS011;3627;46.544;14.944;2022-09-09T14:51:11;5.97;;;3.00;;
7171;SDS011;3627;46.544;14.944;2022-09-09T14:53:39;3.22;;;2.90;;
7171;SDS011;3627;46.544;14.944;2022-09-09T14:56:06;3.65;;;2.83;;
7171;SDS011;3627;46.544;14.944;2022-09-09T14:58:33;3.50;;;3.20;;
7171;SDS011;3627;46.544;14.944;2022-09-09T15:01:02;3.58;;;3.08;;
7171;SDS011;3627;46.544;14.944;2022-09-09T15:03:29;3.55;;;2.70;;
7171;SDS011;3627;46.544;14.944;2022-09-09T15:05:55;5.07;;;3.13;;
7171;SDS011;3627;46.544;14.944;2022-09-09T15:08:24;3.50;;;3.05;;
7171;SDS011;3627;46.544;14.944;2022-09-09T15:10:51;3.22;;;2.92;;
7171;SDS011;3627;46.544;14.944;2022-09-09T15:13:24;6.50;;;2.85;;
7171;SDS011;3627;46.544;14.944;2022-09-09T15:15:51;4.38;;;3.03;;